createdAt,value
2022-12-11T00:01:13.695Z,2.30
2022-12-11T00:03:42.130Z,2.60
2022-12-11T00:06:13.598Z,3.22
2022-12-11T00:08:42.070Z,4.30
2022-12-11T00:11:11.216Z,4.25
2022-12-11T00:13:39.446Z,4.03
2022-12-11T00:16:08.512Z,3.10
2022-12-11T00:18:36.972Z,3.65
2022-12-11T00:21:06.485Z,3.40
2022-12-11T00:23:37.881Z,2.92
2022-12-11T00:26:07.759Z,2.90
2022-12-11T00:28:36.398Z,2.78
2022-12-11T00:31:06.670Z,2.13
2022-12-11T00:33:35.312Z,1.58
2022-12-11T00:36:03.939Z,1.80
2022-12-11T00:38:32.289Z,2.28
2022-12-11T00:41:01.970Z,2.40
2022-12-11T00:43:30.184Z,2.30
2022-12-11T00:45:58.556Z,1.63
2022-12-11T00:48:26.870Z,1.88
2022-12-11T00:50:55.276Z,3.90
2022-12-11T00:53:23.636Z,4.00
2022-12-11T00:55:52.109Z,1.65
2022-12-11T00:58:22.066Z,1.52
2022-12-11T01:00:51.291Z,3.38
2022-12-11T01:03:19.667Z,2.75
2022-12-11T01:05:55.014Z,2.83
2022-12-11T01:08:23.793Z,2.13
2022-12-11T01:10:52.223Z,3.80
2022-12-11T01:13:21.990Z,2.85
2022-12-11T01:15:50.254Z,2.33
2022-12-11T01:18:18.635Z,2.40
2022-12-11T01:20:46.904Z,2.72
2022-12-11T01:23:15.530Z,2.22
2022-12-11T01:25:44.212Z,1.73
2022-12-11T01:28:12.677Z,2.50
2022-12-11T01:30:44.276Z,1.52
2022-12-11T01:33:12.630Z,1.60
2022-12-11T01:35:41.317Z,1.60
2022-12-11T01:38:10.827Z,1.77
2022-12-11T01:43:07.396Z,1.50
2022-12-11T01:45:42.088Z,1.17
2022-12-11T01:48:15.563Z,1.30
2022-12-11T01:50:46.844Z,1.40
2022-12-11T01:53:19.128Z,1.38
2022-12-11T01:55:49.600Z,1.67
2022-12-11T01:58:19.662Z,1.55
2022-12-11T02:00:48.107Z,1.63
2022-12-11T02:03:17.953Z,1.50
2022-12-11T02:05:46.333Z,2.03
2022-12-11T02:08:15.253Z,1.45
2022-12-11T02:11:00.755Z,1.50
2022-12-11T02:13:37.518Z,1.50
2022-12-11T02:16:11.812Z,1.48
2022-12-11T02:18:48.089Z,1.83
2022-12-11T02:21:21.886Z,1.80
2022-12-11T02:24:18.838Z,1.92
2022-12-11T02:27:19.019Z,1.48
2022-12-11T02:29:53.313Z,1.63
2022-12-11T02:32:25.790Z,1.70
2022-12-11T02:35:00.539Z,1.23
2022-12-11T02:37:32.242Z,1.35
2022-12-11T02:40:00.495Z,1.42
2022-12-11T02:42:32.512Z,1.95
2022-12-11T02:45:04.459Z,1.35
2022-12-11T02:47:34.324Z,1.08
2022-12-11T02:50:05.265Z,1.15
2022-12-11T02:52:34.633Z,1.58
2022-12-11T02:55:04.694Z,1.20
2022-12-11T02:57:38.516Z,1.40
2022-12-11T03:00:10.974Z,1.42
2022-12-11T03:02:40.400Z,0.90
2022-12-11T03:05:10.225Z,1.30
2022-12-11T03:07:41.476Z,1.17
2022-12-11T03:10:14.627Z,1.33
2022-12-11T03:12:50.475Z,1.08
2022-12-11T03:15:30.359Z,1.13
2022-12-11T03:18:06.785Z,1.10
2022-12-11T03:20:40.023Z,1.23
2022-12-11T03:23:19.859Z,1.27
2022-12-11T03:25:54.618Z,1.13
2022-12-11T03:28:28.074Z,1.05
2022-12-11T03:30:58.453Z,1.52
2022-12-11T03:33:32.000Z,1.52
2022-12-11T03:36:07.034Z,0.98
2022-12-11T03:38:43.372Z,1.33
2022-12-11T03:41:13.574Z,1.50
2022-12-11T03:43:42.607Z,1.42
2022-12-11T03:46:14.314Z,1.50
2022-12-11T03:48:44.900Z,1.65
2022-12-11T03:51:13.763Z,1.40
2022-12-11T03:53:42.286Z,1.40
2022-12-11T03:56:13.267Z,1.30
2022-12-11T03:58:41.614Z,1.38
2022-12-11T04:01:12.650Z,1.20
2022-12-11T04:03:41.100Z,1.15
2022-12-11T04:06:09.699Z,1.92
2022-12-11T04:08:38.106Z,2.53
2022-12-11T04:11:24.322Z,2.03
2022-12-11T04:14:12.714Z,1.40
2022-12-11T04:16:41.371Z,1.20
2022-12-11T04:19:28.726Z,1.58
2022-12-11T04:22:29.185Z,3.47
2022-12-11T04:24:57.418Z,5.03
2022-12-11T04:27:43.777Z,1.80
2022-12-11T04:30:15.424Z,2.88
2022-12-11T04:32:45.383Z,1.92
2022-12-11T04:35:15.126Z,1.52
2022-12-11T04:37:43.674Z,1.88
2022-12-11T04:40:14.812Z,1.58
2022-12-11T04:42:43.512Z,1.60
2022-12-11T04:45:13.312Z,1.10
2022-12-11T04:47:42.381Z,1.77
2022-12-11T04:50:14.482Z,1.60
2022-12-11T04:52:43.577Z,1.77
2022-12-11T04:55:13.056Z,1.48
2022-12-11T04:57:41.880Z,2.00
2022-12-11T05:00:12.238Z,1.67
2022-12-11T05:02:42.182Z,1.70
2022-12-11T05:05:12.989Z,1.20
2022-12-11T05:07:42.186Z,1.42
2022-12-11T05:10:11.345Z,1.50
2022-12-11T05:12:39.915Z,1.30
2022-12-11T05:15:09.784Z,1.50
2022-12-11T05:17:38.353Z,1.20
2022-12-11T05:20:07.635Z,1.27
2022-12-11T05:22:37.586Z,1.27
2022-12-11T05:25:06.693Z,1.40
2022-12-11T05:27:35.080Z,1.30
2022-12-11T05:30:03.430Z,1.15
2022-12-11T05:32:31.960Z,1.13
2022-12-11T05:35:00.290Z,1.73
2022-12-11T05:37:28.561Z,0.88
2022-12-11T05:39:58.229Z,1.35
2022-12-11T05:42:29.041Z,1.58
2022-12-11T05:44:57.554Z,1.30
2022-12-11T05:47:26.008Z,1.30
2022-12-11T05:49:54.399Z,1.25
2022-12-11T05:52:23.402Z,1.35
2022-12-11T05:54:51.919Z,1.10
2022-12-11T05:57:21.634Z,1.00
2022-12-11T05:59:50.006Z,1.10
2022-12-11T06:02:18.406Z,1.27
2022-12-11T06:04:46.857Z,1.20
2022-12-11T06:07:15.477Z,1.27
2022-12-11T06:09:43.816Z,1.45
2022-12-11T06:12:12.350Z,1.40
2022-12-11T06:14:42.299Z,1.33
2022-12-11T06:17:10.660Z,2.13
2022-12-11T06:19:39.142Z,1.77
2022-12-11T06:22:07.484Z,1.40
2022-12-11T06:24:35.882Z,2.17
2022-12-11T06:27:04.192Z,1.30
2022-12-11T06:29:32.791Z,1.25
2022-12-11T06:32:02.685Z,1.25
2022-12-11T06:34:31.097Z,1.42
2022-12-11T06:36:59.418Z,1.60
2022-12-11T06:39:27.705Z,1.40
2022-12-11T06:41:55.982Z,1.35
2022-12-11T06:44:25.049Z,1.40
2022-12-11T06:46:53.401Z,1.83
2022-12-11T06:49:23.340Z,1.33
2022-12-11T06:51:51.718Z,1.25
2022-12-11T06:54:20.023Z,1.48
2022-12-11T06:56:48.315Z,1.58
2022-12-11T06:59:16.571Z,2.35
2022-12-11T07:01:44.860Z,1.80
2022-12-11T07:04:13.273Z,1.90
2022-12-11T07:06:43.042Z,2.17
2022-12-11T07:09:11.422Z,2.90
2022-12-11T07:11:39.717Z,2.67
2022-12-11T07:14:08.031Z,2.55
2022-12-11T07:16:37.061Z,2.78
2022-12-11T07:19:05.477Z,2.20
2022-12-11T07:21:33.920Z,2.30
2022-12-11T07:24:03.659Z,2.28
2022-12-11T07:26:32.480Z,3.00
2022-12-11T07:29:01.924Z,2.30
2022-12-11T07:31:31.368Z,2.45
2022-12-11T07:36:29.176Z,2.53
2022-12-11T07:38:57.596Z,2.30
2022-12-11T07:41:28.870Z,2.15
2022-12-11T07:43:57.552Z,2.38
2022-12-11T07:46:28.390Z,2.78
2022-12-11T07:48:56.859Z,2.75
2022-12-11T07:51:28.045Z,2.10
2022-12-11T07:53:58.128Z,2.05
2022-12-11T07:56:28.980Z,1.73
2022-12-11T07:58:57.503Z,1.92
2022-12-11T08:01:28.285Z,2.00
2022-12-11T08:04:00.560Z,1.80
2022-12-11T08:06:31.399Z,2.42
2022-12-11T08:09:01.273Z,2.60
2022-12-11T08:11:30.940Z,2.50
2022-12-11T08:14:00.516Z,2.58
2022-12-11T08:16:29.262Z,1.75
2022-12-11T08:18:57.687Z,1.98
2022-12-11T08:21:27.682Z,2.13
2022-12-11T08:23:56.303Z,2.20
2022-12-11T08:26:27.112Z,3.35
2022-12-11T08:28:57.756Z,2.83
2022-12-11T08:31:27.039Z,4.45
2022-12-11T08:33:56.972Z,4.40
2022-12-11T08:36:26.039Z,2.90
2022-12-11T08:38:56.301Z,3.03
2022-12-11T08:41:26.864Z,1.90
2022-12-11T08:44:00.315Z,2.20
2022-12-11T08:46:30.425Z,2.03
2022-12-11T08:48:59.708Z,1.75
2022-12-11T08:53:58.014Z,5.40
2022-12-11T08:56:27.587Z,8.45
2022-12-11T08:58:57.565Z,8.00
2022-12-11T09:01:27.574Z,3.72
2022-12-11T09:03:57.066Z,3.15
2022-12-11T09:06:27.812Z,2.35
2022-12-11T09:08:57.303Z,2.10
2022-12-11T09:11:28.209Z,2.75
2022-12-11T09:14:11.797Z,4.28
2022-12-11T09:16:55.894Z,11.85
2022-12-11T09:19:39.744Z,10.85
2022-12-11T09:23:51.883Z,4.68
2022-12-11T09:26:42.647Z,1.73
2022-12-11T09:29:30.866Z,1.70
2022-12-11T09:35:04.687Z,1.20
2022-12-11T09:37:38.665Z,1.70
2022-12-11T09:40:08.188Z,1.40
2022-12-11T09:42:51.413Z,1.40
2022-12-11T09:45:21.844Z,1.83
2022-12-11T09:47:53.326Z,1.50
2022-12-11T09:50:50.855Z,1.95
2022-12-11T09:53:33.776Z,1.42
2022-12-11T09:56:10.965Z,1.70
2022-12-11T09:58:48.860Z,1.70
2022-12-11T10:01:33.250Z,1.40
2022-12-11T10:04:27.894Z,1.50
2022-12-11T10:07:15.764Z,1.40
2022-12-11T10:10:09.009Z,1.27
2022-12-11T10:13:00.078Z,1.60
2022-12-11T10:15:38.229Z,1.38
2022-12-11T10:18:19.210Z,1.23
2022-12-11T10:20:48.425Z,1.30
2022-12-11T10:25:54.770Z,1.42
2022-12-11T10:28:23.641Z,1.30
2022-12-11T10:31:04.718Z,1.92
2022-12-11T10:33:42.695Z,1.38
2022-12-11T10:36:14.527Z,1.70
2022-12-11T10:38:46.356Z,1.40
2022-12-11T10:41:18.513Z,1.85
2022-12-11T10:43:48.988Z,1.30
2022-12-11T10:46:23.983Z,1.55
2022-12-11T10:48:55.841Z,1.65
2022-12-11T10:51:27.014Z,1.20
2022-12-11T10:54:02.649Z,1.48
2022-12-11T10:56:35.732Z,1.50
2022-12-11T10:59:04.961Z,1.58
2022-12-11T11:04:07.027Z,1.52
2022-12-11T11:06:36.314Z,1.10
2022-12-11T11:09:04.922Z,1.55
2022-12-11T11:11:35.271Z,1.48
2022-12-11T11:14:09.466Z,1.58
2022-12-11T11:16:39.895Z,1.60
2022-12-11T11:19:20.005Z,1.60
2022-12-11T11:21:52.597Z,1.63
2022-12-11T11:24:28.867Z,1.33
2022-12-11T11:27:13.195Z,1.88
2022-12-11T11:29:47.737Z,1.50
2022-12-11T11:32:24.900Z,1.58
2022-12-11T11:35:07.359Z,1.50
2022-12-11T11:37:36.033Z,1.73
2022-12-11T11:40:09.410Z,1.63
2022-12-11T11:42:46.660Z,1.40
2022-12-11T11:45:18.971Z,1.92
2022-12-11T11:47:57.247Z,1.48
2022-12-11T11:50:33.077Z,1.52
2022-12-11T11:53:06.824Z,1.02
2022-12-11T11:55:43.757Z,1.73
2022-12-11T11:58:18.050Z,1.50
2022-12-11T12:00:46.691Z,1.80
2022-12-11T12:03:18.121Z,1.83
2022-12-11T12:05:57.076Z,1.40
2022-12-11T12:08:43.158Z,1.40
2022-12-11T12:11:18.405Z,1.50
2022-12-11T12:13:53.805Z,1.50
2022-12-11T12:19:34.675Z,1.33
2022-12-11T12:22:16.282Z,1.70
2022-12-11T12:24:53.729Z,1.90
2022-12-11T12:27:51.619Z,1.70
2022-12-11T12:30:22.774Z,1.60
2022-12-11T12:33:08.758Z,1.58
2022-12-11T12:35:38.799Z,1.30
2022-12-11T12:38:19.351Z,1.52
2022-12-11T12:40:57.062Z,1.50
2022-12-11T12:43:36.443Z,1.40
2022-12-11T12:46:13.946Z,1.80
2022-12-11T12:48:42.404Z,1.77
2022-12-11T12:51:15.735Z,1.77
2022-12-11T12:53:54.198Z,1.70
2022-12-11T12:56:23.532Z,1.60
2022-12-11T12:58:51.889Z,1.45
2022-12-11T13:01:23.356Z,1.40
2022-12-11T13:03:55.976Z,1.40
2022-12-11T13:06:32.952Z,1.52
2022-12-11T13:09:14.116Z,2.15
2022-12-11T13:11:42.916Z,1.60
2022-12-11T13:14:28.461Z,2.20
2022-12-11T13:17:09.593Z,1.90
2022-12-11T13:19:42.577Z,2.25
2022-12-11T13:22:23.448Z,1.85
2022-12-11T13:25:01.686Z,1.52
2022-12-11T13:27:40.013Z,1.73
2022-12-11T13:30:23.377Z,1.42
2022-12-11T13:33:02.178Z,1.63
2022-12-11T13:35:31.550Z,1.95
2022-12-11T13:38:06.090Z,1.40
2022-12-11T13:40:42.730Z,1.60
2022-12-11T13:43:19.469Z,1.38
2022-12-11T13:45:50.721Z,1.50
2022-12-11T13:48:24.304Z,1.80
2022-12-11T13:50:53.485Z,1.40
2022-12-11T13:56:00.327Z,1.50
2022-12-11T13:58:29.430Z,1.60
2022-12-11T14:01:07.645Z,1.63
2022-12-11T14:03:36.913Z,1.42
2022-12-11T14:08:37.186Z,1.67
2022-12-11T14:11:07.348Z,1.88
2022-12-11T14:13:38.538Z,1.50
2022-12-11T14:16:08.233Z,1.10
2022-12-11T14:18:38.303Z,1.98
2022-12-11T14:21:07.806Z,1.52
2022-12-11T14:23:37.592Z,1.83
2022-12-11T14:26:20.062Z,2.45
2022-12-11T14:28:48.357Z,3.00
2022-12-11T14:31:22.106Z,2.70
2022-12-11T14:33:52.914Z,2.35
2022-12-11T14:36:22.101Z,2.70
2022-12-11T14:38:55.522Z,3.33
2022-12-11T14:41:28.920Z,2.40
2022-12-11T14:44:00.258Z,3.65
2022-12-11T14:46:37.814Z,2.10
2022-12-11T14:49:13.974Z,2.40
2022-12-11T14:51:43.591Z,4.35
2022-12-11T14:54:22.611Z,5.45
2022-12-11T14:56:52.448Z,4.70
2022-12-11T14:59:29.974Z,4.97
2022-12-11T15:02:03.175Z,5.40
2022-12-11T15:04:34.467Z,4.90
2022-12-11T15:07:02.998Z,7.55
2022-12-11T15:09:40.735Z,7.78
2022-12-11T15:12:14.645Z,5.90
2022-12-11T15:14:49.491Z,6.57
2022-12-11T15:17:18.649Z,5.30
2022-12-11T15:19:51.680Z,4.95
2022-12-11T15:22:25.240Z,3.80
2022-12-11T15:24:55.294Z,4.10
2022-12-11T15:27:35.638Z,4.80
2022-12-11T15:30:15.956Z,6.75
2022-12-11T15:32:44.449Z,6.60
2022-12-11T15:35:25.659Z,5.78
2022-12-11T15:37:58.411Z,5.70
2022-12-11T15:40:27.768Z,3.58
2022-12-11T15:45:28.432Z,2.65
2022-12-11T15:47:57.533Z,3.20
2022-12-11T15:50:27.527Z,2.90
2022-12-11T15:52:57.449Z,3.00
2022-12-11T15:55:29.711Z,2.33
2022-12-11T15:58:02.802Z,2.90
2022-12-11T16:00:31.794Z,2.85
2022-12-11T16:03:00.453Z,3.25
2022-12-11T16:05:28.960Z,3.15
2022-12-11T16:07:59.528Z,2.95
2022-12-11T16:10:28.379Z,2.95
2022-12-11T16:12:59.644Z,2.92
2022-12-11T16:15:30.360Z,3.22
2022-12-11T16:18:03.711Z,3.30
2022-12-11T16:20:32.961Z,2.78
2022-12-11T16:23:01.643Z,2.90
2022-12-11T16:25:30.096Z,3.47
2022-12-11T16:27:59.833Z,3.88
2022-12-11T16:30:30.310Z,3.20
2022-12-11T16:32:59.000Z,6.35
2022-12-11T16:35:27.365Z,5.00
2022-12-11T16:37:56.765Z,3.03
2022-12-11T16:42:53.543Z,3.72
2022-12-11T16:45:25.321Z,4.30
2022-12-11T16:47:55.760Z,4.85
2022-12-11T16:50:25.428Z,4.40
2022-12-11T16:52:53.713Z,3.90
2022-12-11T16:55:24.481Z,3.15
2022-12-11T16:57:52.904Z,3.13
2022-12-11T17:00:21.362Z,3.25
2022-12-11T17:02:49.831Z,3.83
2022-12-11T17:05:20.073Z,3.83
2022-12-11T17:07:48.480Z,2.90
2022-12-11T17:10:16.958Z,3.55
2022-12-11T17:12:45.333Z,3.70
2022-12-11T17:15:14.113Z,4.93
2022-12-11T17:17:43.362Z,4.55
2022-12-11T17:20:12.309Z,3.60
2022-12-11T17:22:42.117Z,3.58
2022-12-11T17:25:10.919Z,4.82
2022-12-11T17:27:39.585Z,3.65
2022-12-11T17:30:09.410Z,3.13
2022-12-11T17:32:37.695Z,3.33
2022-12-11T17:35:06.835Z,2.97
2022-12-11T17:37:35.216Z,2.72
2022-12-11T17:40:05.296Z,2.95
2022-12-11T17:42:33.654Z,2.58
2022-12-11T17:45:02.263Z,3.28
2022-12-11T17:47:30.585Z,3.15
2022-12-11T17:49:58.903Z,3.28
2022-12-11T17:52:34.005Z,3.45
2022-12-11T17:55:05.279Z,3.25
2022-12-11T17:57:33.982Z,3.17
2022-12-11T18:00:02.327Z,3.58
2022-12-11T18:02:30.794Z,4.22
2022-12-11T18:04:59.105Z,3.88
2022-12-11T18:07:27.654Z,4.50
2022-12-11T18:09:56.323Z,4.95
2022-12-11T18:12:26.033Z,4.75
2022-12-11T18:14:54.446Z,3.63
2022-12-11T18:17:22.808Z,5.32
2022-12-11T18:19:51.208Z,5.82
2022-12-11T18:22:19.454Z,4.13
2022-12-11T18:24:47.915Z,5.30
2022-12-11T18:27:16.144Z,4.50
2022-12-11T18:29:45.823Z,3.90
2022-12-11T18:32:14.175Z,3.83
2022-12-11T18:34:42.802Z,5.93
2022-12-11T18:37:11.140Z,4.35
2022-12-11T18:39:39.515Z,3.03
2022-12-11T18:42:32.407Z,3.72
2022-12-11T18:44:58.508Z,3.63
2022-12-11T18:47:26.905Z,3.67
2022-12-11T18:49:55.405Z,3.70
2022-12-11T18:52:24.133Z,4.03
2022-12-11T18:54:53.190Z,3.53
2022-12-11T18:57:22.214Z,3.65
2022-12-11T18:59:52.405Z,4.03
2022-12-11T19:02:22.990Z,3.83
2022-12-11T19:04:51.298Z,4.05
2022-12-11T19:07:19.764Z,4.00
2022-12-11T19:09:48.590Z,3.50
2022-12-11T19:12:17.004Z,4.00
2022-12-11T19:14:45.621Z,3.90
2022-12-11T19:17:14.010Z,2.30
2022-12-11T19:19:46.207Z,2.20
2022-12-11T19:22:15.061Z,2.85
2022-12-11T19:24:43.888Z,3.00
2022-12-11T19:27:13.871Z,2.53
2022-12-11T19:29:42.503Z,3.58
2022-12-11T19:32:10.843Z,2.72
2022-12-11T19:34:39.648Z,2.85
2022-12-11T19:37:09.643Z,3.10
2022-12-11T19:39:40.497Z,4.95
2022-12-11T19:42:09.021Z,3.80
2022-12-11T19:44:37.772Z,2.92
2022-12-11T19:47:06.481Z,2.55
2022-12-11T19:49:34.847Z,2.97
2022-12-11T19:52:04.565Z,4.78
2022-12-11T19:54:34.297Z,3.00
2022-12-11T19:57:02.930Z,3.10
2022-12-11T19:59:31.250Z,3.08
2022-12-11T20:01:59.690Z,3.88
2022-12-11T20:04:28.000Z,3.67
2022-12-11T20:06:56.503Z,3.20
2022-12-11T20:09:25.470Z,3.60
2022-12-11T20:11:55.364Z,2.90
2022-12-11T20:14:25.766Z,2.17
2022-12-11T20:17:13.928Z,3.17
2022-12-11T20:19:43.062Z,3.08
2022-12-11T20:22:11.864Z,3.10
2022-12-11T20:24:40.371Z,2.72
2022-12-11T20:27:12.401Z,2.97
2022-12-11T20:29:41.204Z,2.10
2022-12-11T20:32:11.334Z,2.63
2022-12-11T20:34:40.157Z,2.33
2022-12-11T20:37:08.925Z,2.75
2022-12-11T20:39:37.821Z,2.28
2022-12-11T20:42:06.270Z,2.65
2022-12-11T20:44:36.049Z,2.25
2022-12-11T20:47:06.727Z,2.40
2022-12-11T20:49:35.036Z,2.30
2022-12-11T20:52:03.499Z,2.17
2022-12-11T20:54:32.212Z,2.42
2022-12-11T20:57:00.510Z,1.75
2022-12-11T20:59:29.241Z,1.98
2022-12-11T21:01:59.150Z,2.28
2022-12-11T21:04:27.502Z,2.13
2022-12-11T21:07:01.182Z,2.03
2022-12-11T21:09:29.553Z,1.77
2022-12-11T21:12:00.836Z,1.75
2022-12-11T21:14:30.262Z,1.70
2022-12-11T21:19:28.867Z,2.38
2022-12-11T21:21:57.961Z,1.77
2022-12-11T21:24:29.161Z,1.80
2022-12-11T21:27:00.592Z,1.40
2022-12-11T21:29:30.393Z,1.98
2022-12-11T21:32:00.383Z,2.22
2022-12-11T21:34:29.012Z,1.80
2022-12-11T21:36:57.658Z,2.95
2022-12-11T21:39:28.216Z,1.90
2022-12-11T21:41:58.146Z,2.30
2022-12-11T21:47:16.284Z,2.00
2022-12-11T21:49:44.715Z,1.77
2022-12-11T21:52:13.124Z,2.35
2022-12-11T21:54:41.739Z,1.98
2022-12-11T21:57:09.966Z,1.83
2022-12-11T21:59:38.432Z,1.90
2022-12-11T22:02:06.903Z,1.63
2022-12-11T22:04:37.876Z,1.70
2022-12-11T22:07:06.334Z,1.60
2022-12-11T22:09:34.925Z,1.60
2022-12-11T22:12:03.326Z,1.90
2022-12-11T22:14:31.951Z,1.73
2022-12-11T22:17:00.542Z,1.48
2022-12-11T22:19:32.524Z,1.70
2022-12-11T22:22:02.605Z,1.85
2022-12-11T22:24:31.196Z,1.65
2022-12-11T22:26:59.518Z,1.35
2022-12-11T22:29:28.394Z,1.80
2022-12-11T22:31:56.980Z,1.60
2022-12-11T22:34:25.582Z,1.90
2022-12-11T22:36:54.501Z,1.95
2022-12-11T22:39:25.606Z,1.70
2022-12-11T22:41:56.947Z,2.55
2022-12-11T22:44:25.807Z,2.28
2022-12-11T22:46:54.864Z,2.08
2022-12-11T22:49:27.159Z,2.25
2022-12-11T22:51:57.370Z,3.08
2022-12-11T22:54:27.070Z,1.65
2022-12-11T22:56:55.325Z,1.80
2022-12-11T22:59:23.981Z,1.50
2022-12-11T23:01:52.420Z,1.95
2022-12-11T23:04:20.784Z,2.08
2022-12-11T23:06:49.112Z,1.80
2022-12-11T23:09:17.867Z,1.70
2022-12-11T23:11:47.564Z,1.50
2022-12-11T23:14:18.000Z,1.73
2022-12-11T23:16:46.879Z,1.40
2022-12-11T23:19:16.888Z,1.70
2022-12-11T23:21:50.566Z,1.67
2022-12-11T23:24:23.753Z,1.40
2022-12-11T23:26:55.749Z,1.48
2022-12-11T23:29:25.305Z,1.40
2022-12-11T23:31:54.491Z,1.33
2022-12-11T23:34:24.330Z,1.50
2022-12-11T23:36:52.743Z,1.60
2022-12-11T23:39:21.016Z,1.67
2022-12-11T23:41:49.459Z,1.48
2022-12-11T23:44:19.221Z,1.50
2022-12-11T23:46:47.550Z,1.67
2022-12-11T23:49:16.101Z,1.65
2022-12-11T23:51:44.524Z,1.80
2022-12-11T23:54:12.907Z,1.40
2022-12-11T23:56:41.204Z,1.35
2022-12-11T23:59:12.842Z,1.60
